Time;durP1;ratioP1;P1;durP2;ratioP2;P2;SDS_P1;SDS_P2;PMS_P1;PMS_P2;Temp;Humidity;BMP_temperature;BMP_pressure;BME280_temperature;BME280_humidity;BME280_pressure;Samples;Min_cycle;Max_cycle;Signal;HPM_P1;HPM_P2
2022/10/25 00:01:41;;;;;;;15.00;8.90;;;;;;;21.65;61.61;100313.09;21050572;27;20043;-74
2022/10/25 00:11:42;;;;;;;14.75;8.85;;;;;;;21.63;61.69;100342.22;21052342;28;20075;-74
2022/10/25 00:21:42;;;;;;;13.55;8.45;;;;;;;21.63;61.83;100349.28;21046782;28;20043;-73
2022/10/25 00:31:43;;;;;;;12.88;8.60;;;;;;;21.62;61.88;100366.03;21047858;28;20043;-74
2022/10/25 00:41:43;;;;;;;13.82;8.50;;;;;;;21.62;61.81;100358.13;21044032;27;20043;-73
2022/10/25 00:51:46;;;;;;;12.80;8.75;;;;;;;21.61;61.62;100361.75;21052929;27;21173;-73
2022/10/25 01:01:46;;;;;;;;;;;;;;;21.60;61.89;100374.06;21078756;27;20044;-72
2022/10/25 01:11:47;;;;;;;13.48;8.63;;;;;;;21.58;62.10;100392.66;21066719;27;19927;-71
2022/10/25 01:21:53;;;;;;;14.07;8.38;;;;;;;21.58;61.99;100379.47;21070918;27;20043;-71
2022/10/25 01:32:02;;;;;;;13.30;8.15;;;;;;;21.56;62.02;100378.75;21070215;27;20058;-71
2022/10/25 01:42:18;;;;;;;11.50;7.70;;;;;;;21.56;61.58;100373.47;21072109;27;20044;-71
2022/10/25 01:52:22;;;;;;;11.55;7.88;;;;;;;21.57;61.69;100390.97;21056251;27;20035;-72
2022/10/25 02:02:37;;;;;;;13.98;8.25;;;;;;;21.56;61.71;100376.13;21064315;27;20409;-71
2022/10/25 02:12:51;;;;;;;14.23;7.78;;;;;;;21.55;61.61;100370.94;21070934;27;20079;-71
2022/10/25 02:22:53;;;;;;;11.13;7.60;;;;;;;21.52;61.87;100369.41;21074750;27;20113;-72
2022/10/25 02:32:54;;;;;;;9.90;7.20;;;;;;;21.51;61.37;100357.19;21060462;27;20195;-72
2022/10/25 02:42:54;;;;;;;12.05;7.50;;;;;;;21.51;61.78;100351.91;21053049;27;20055;-73
2022/10/25 02:52:55;;;;;;;9.77;7.13;;;;;;;21.50;61.80;100342.31;21069931;27;20036;-73
2022/10/25 03:02:55;;;;;;;11.65;7.38;;;;;;;21.50;61.89;100367.84;21048990;27;20066;-73
2022/10/25 03:12:55;;;;;;;9.85;6.95;;;;;;;21.48;61.90;100367.94;21050766;27;20044;-72
2022/10/25 03:22:56;;;;;;;9.65;6.80;;;;;;;21.49;61.92;100374.88;21057401;28;20040;-72
2022/10/25 03:32:57;;;;;;;12.02;7.20;;;;;;;21.48;61.63;100375.03;21058283;27;20038;-72
2022/10/25 03:42:58;;;;;;;9.98;6.32;;;;;;;21.49;61.61;100387.25;21057146;27;20207;-74
2022/10/25 03:52:58;;;;;;;9.15;6.55;;;;;;;21.48;62.31;100394.28;21059413;27;20135;-73
2022/10/25 04:03:00;;;;;;;9.23;6.35;;;;;;;21.49;62.16;100371.44;21044449;28;20032;-73
2022/10/25 04:13:01;;;;;;;8.47;5.90;;;;;;;21.49;62.19;100364.34;21043328;27;20077;-71
2022/10/25 04:23:01;;;;;;;8.10;6.13;;;;;;;21.52;62.42;100366.75;21056106;27;20044;-76
2022/10/25 04:33:01;;;;;;;12.63;6.65;;;;;;;21.53;63.40;100365.81;21070656;27;20046;-75
2022/10/25 04:43:02;;;;;;;18.20;7.70;;;;;;;21.58;63.57;100368.06;21069476;27;20120;-78
2022/10/25 04:53:03;;;;;;;18.70;8.13;;;;;;;21.57;63.15;100372.53;21074353;27;20133;-74
2022/10/25 05:03:03;;;;;;;19.10;8.32;;;;;;;21.38;59.81;100375.72;21073882;27;20100;-78
2022/10/25 05:13:04;;;;;;;21.80;7.95;;;;;;;21.49;61.57;100380.16;21084986;27;20124;-76
2022/10/25 05:23:04;;;;;;;17.92;8.30;;;;;;;21.50;61.86;100378.38;21094697;27;20048;-77
2022/10/25 05:33:05;;;;;;;14.80;6.78;;;;;;;21.54;62.11;100390.34;21098538;27;20078;-75
2022/10/25 05:43:05;;;;;;;19.73;7.00;;;;;;;21.58;62.41;100428.69;21103590;27;20066;-80
2022/10/25 05:53:06;;;;;;;11.77;5.90;;;;;;;21.56;62.42;100467.47;21065979;27;20040;-80
2022/10/25 06:03:07;;;;;;;16.60;6.65;;;;;;;21.58;62.08;100502.47;21088106;27;20040;-80
2022/10/25 06:13:07;;;;;;;15.43;6.38;;;;;;;21.60;62.06;100476.84;21105737;27;20099;-80
2022/10/25 06:23:08;;;;;;;14.52;6.15;;;;;;;21.58;61.93;100511.22;21120204;27;20055;-81
2022/10/25 06:33:08;;;;;;;11.68;5.80;;;;;;;21.61;62.12;100511.94;21076853;27;20043;-80
2022/10/25 06:43:09;;;;;;;12.25;5.63;;;;;;;21.62;62.17;100526.78;21062002;27;20075;-80
2022/10/25 06:53:09;;;;;;;12.48;5.43;;;;;;;21.61;61.97;100522.50;21057482;27;20405;-80
2022/10/25 07:03:09;;;;;;;11.23;5.50;;;;;;;21.65;61.84;100529.19;21055857;27;20043;-80
2022/10/25 07:13:10;;;;;;;11.15;5.93;;;;;;;21.66;61.90;100522.97;21067814;27;20072;-80
2022/10/25 07:23:10;;;;;;;11.20;5.93;;;;;;;21.66;61.82;100513.25;21064025;27;20082;-82
2022/10/25 07:33:12;;;;;;;10.70;6.00;;;;;;;21.67;61.56;100528.13;21072661;27;20162;-83
2022/10/25 07:43:12;;;;;;;9.05;5.82;;;;;;;21.68;61.80;100531.56;21068322;27;24204;-79
2022/10/25 07:53:13;;;;;;;9.82;5.78;;;;;;;21.71;61.86;100549.78;21071958;27;20043;-78
2022/10/25 08:03:15;;;;;;;9.60;5.80;;;;;;;21.73;61.91;100558.44;21080203;27;20051;-78
2022/10/25 08:13:15;;;;;;;10.87;6.57;;;;;;;21.72;61.66;100556.75;21085663;28;20401;-78
2022/10/25 08:23:16;;;;;;;10.43;6.68;;;;;;;21.75;61.40;100560.00;21081591;28;20047;-79
2022/10/25 08:33:16;;;;;;;11.77;7.90;;;;;;;21.78;61.63;100555.44;21076724;28;20060;-77
2022/10/25 08:43:27;;;;;;;11.20;7.88;;;;;;;21.77;61.44;100541.41;21086134;27;20604;-77
2022/10/25 08:53:33;;;;;;;10.93;7.25;;;;;;;21.79;61.67;100571.13;21073897;27;20107;-77
2022/10/25 09:03:33;;;;;;;13.07;9.30;;;;;;;21.80;61.47;100588.63;21067399;27;20043;-78
2022/10/25 09:13:39;;;;;;;15.05;9.80;;;;;;;21.82;61.29;100589.34;21067160;27;20159;-78
2022/10/25 09:23:49;;;;;;;19.17;12.65;;;;;;;21.82;61.87;100585.88;21066019;27;20060;-76
2022/10/25 09:33:59;;;;;;;22.63;13.82;;;;;;;21.83;61.50;100588.38;21065621;27;20095;-77
2022/10/25 09:44:14;;;;;;;19.95;14.20;;;;;;;21.85;61.44;100586.47;21081283;27;20393;-77
2022/10/25 09:54:27;;;;;;;25.27;16.15;;;;;;;21.90;61.05;100591.41;21058439;27;20050;-74
2022/10/25 10:04:36;;;;;;;23.70;16.23;;;;;;;21.95;60.65;100604.19;21064392;27;20039;-75
2022/10/25 10:14:44;;;;;;;21.60;15.27;;;;;;;21.99;60.58;100619.66;21061292;27;20162;-76
2022/10/25 10:24:47;;;;;;;20.13;15.38;;;;;;;21.97;60.50;100599.66;21071647;27;20104;-76
2022/10/25 10:34:54;;;;;;;21.17;15.52;;;;;;;22.09;60.00;100613.69;21056898;27;20052;-76
2022/10/25 10:45:06;;;;;;;20.13;14.68;;;;;;;22.15;60.24;100606.13;21073343;27;20036;-76
2022/10/25 10:55:19;;;;;;;20.63;14.90;;;;;;;22.18;59.79;100616.47;21066523;27;20040;-77
2022/10/25 11:05:19;;;;;;;;;;;;;;;22.23;60.07;100619.56;21073663;27;20070;-77
2022/10/25 11:15:20;;;;;;;21.48;13.75;;;;;;;22.22;59.87;100609.16;21071033;27;19942;-77
2022/10/25 11:25:27;;;;;;;47.78;21.55;;;;;;;22.31;61.11;100597.84;21066693;27;20070;-75
2022/10/25 11:35:46;;;;;;;50.03;21.95;;;;;;;22.39;61.58;100597.28;21063964;27;20044;-74
2022/10/25 11:46:02;;;;;;;46.10;21.55;;;;;;;22.58;61.57;100601.09;21071619;27;20043;-74
2022/10/25 11:56:08;;;;;;;22.88;10.15;;;;;;;22.60;57.61;100602.66;21066671;27;20325;-75
2022/10/25 12:06:41;;;;;;;29.45;13.25;;;;;;;22.75;58.97;100595.28;21056180;27;20047;-77
2022/10/25 12:16:42;;;;;;;23.83;11.02;;;;;;;22.85;57.92;100583.03;21068007;28;20043;-77
2022/10/25 12:26:44;;;;;;;12.03;4.10;;;;;;;22.84;49.51;100586.63;21050736;27;20357;-74
2022/10/25 12:36:54;;;;;;;4.85;1.95;;;;;;;22.86;46.56;100600.56;21053973;28;20107;-74
2022/10/25 12:47:17;;;;;;;3.47;2.03;;;;;;;22.88;46.23;100603.06;21058657;28;20047;-75
2022/10/25 12:57:24;;;;;;;3.30;2.15;;;;;;;22.95;47.07;100593.69;21081384;27;20074;-76
2022/10/25 13:07:25;;;;;;;5.03;2.35;;;;;;;22.95;47.07;100580.47;21079618;27;20075;-76
2022/10/25 13:17:25;;;;;;;10.13;2.00;;;;;;;22.99;46.77;100592.47;21063266;27;20063;-76
2022/10/25 13:27:28;;;;;;;6.05;1.40;;;;;;;22.96;44.83;100590.09;21069326;27;20052;-77
2022/10/25 13:37:32;;;;;;;18.92;13.88;;;;;;;22.95;45.14;100591.03;21087238;27;20038;-77
2022/10/25 13:47:41;;;;;;;6.53;2.20;;;;;;;22.94;45.43;100597.28;21087570;27;20059;-79
2022/10/25 13:57:52;;;;;;;5.50;1.70;;;;;;;22.91;44.88;100589.63;21075826;27;20395;-80
2022/10/25 14:07:54;;;;;;;1.42;1.10;;;;;;;22.93;44.22;100592.97;21086126;27;20043;-78
2022/10/25 14:17:57;;;;;;;1.30;1.20;;;;;;;22.90;43.72;100606.44;21071558;27;20039;-76
2022/10/25 14:28:12;;;;;;;3.47;1.10;;;;;;;22.82;43.64;100614.94;21057267;27;20077;-77
2022/10/25 14:38:16;;;;;;;10.60;1.15;;;;;;;22.42;45.37;100620.78;21060385;27;20040;-77
2022/10/25 14:48:16;;;;;;;4.20;1.30;;;;;;;22.63;48.38;100612.97;21059313;27;20036;-77
2022/10/25 14:58:17;;;;;;;6.15;1.60;;;;;;;22.64;49.96;100619.94;21060215;27;20044;-77
2022/10/25 15:08:23;;;;;;;6.03;1.35;;;;;;;22.61;51.09;100630.72;21056997;27;20518;-74
2022/10/25 15:18:24;;;;;;;6.82;1.70;;;;;;;22.55;48.92;100626.75;21048524;27;20054;-79
2022/10/25 15:28:45;;;;;;;4.00;1.75;;;;;;;22.38;48.12;100633.38;21055219;27;20055;-77
2022/10/25 15:38:46;;;;;;;31.42;6.78;;;;;;;22.26;48.23;100641.41;21065236;27;20883;-78
2022/10/25 15:48:46;;;;;;;9.93;2.70;;;;;;;22.14;48.13;100646.69;21058624;27;20055;-73
2022/10/25 15:58:47;;;;;;;11.82;3.40;;;;;;;22.22;52.30;100654.81;21050482;27;20046;-74
2022/10/25 16:08:47;;;;;;;12.35;4.47;;;;;;;22.30;54.71;100640.19;21057392;28;20387;-74
2022/10/25 16:18:48;;;;;;;26.90;6.70;;;;;;;22.33;56.83;100640.78;21063927;27;20040;-73
2022/10/25 16:28:48;;;;;;;30.48;7.30;;;;;;;22.38;58.56;100656.28;21068907;27;20043;-73
2022/10/25 16:38:49;;;;;;;24.50;7.63;;;;;;;22.43;59.75;100658.59;21081970;27;20032;-74
2022/10/25 16:48:49;;;;;;;28.77;6.82;;;;;;;22.44;60.03;100665.53;21082464;27;20645;-78
2022/10/25 16:58:50;;;;;;;28.73;6.97;;;;;;;22.45;60.01;100675.09;21064701;27;20097;-72
2022/10/25 17:08:50;;;;;;;27.40;7.40;;;;;;;22.45;60.94;100669.84;21074509;27;20109;-73
2022/10/25 17:18:51;;;;;;;64.07;13.65;;;;;;;22.49;62.76;100682.66;21063204;27;20036;-78
2022/10/25 17:28:51;;;;;;;66.32;16.77;;;;;;;22.52;60.97;100697.41;21065450;27;20054;-76
2022/10/25 17:38:53;;;;;;;58.85;14.60;;;;;;;22.38;57.17;100703.78;21075927;27;20040;-75
2022/10/25 17:49:04;;;;;;;63.05;15.13;;;;;;;22.53;62.13;100701.75;21075615;27;20436;-77
2022/10/25 17:59:05;;;;;;;44.57;12.87;;;;;;;22.56;63.39;100709.44;21067818;27;20044;-76
2022/10/25 18:09:05;;;;;;;42.10;10.55;;;;;;;22.59;63.39;100709.19;21059858;27;20430;-76
2022/10/25 18:19:06;;;;;;;48.08;12.80;;;;;;;22.61;63.26;100703.81;21037076;27;20035;-76
2022/10/25 18:29:06;;;;;;;35.35;10.80;;;;;;;22.62;63.02;100708.09;21058363;27;20056;-75
2022/10/25 18:39:07;;;;;;;37.70;10.38;;;;;;;22.62;62.46;100706.31;21046661;27;20051;-77
2022/10/25 18:49:11;;;;;;;31.98;9.43;;;;;;;22.64;62.68;100700.91;21043848;27;20127;-75
2022/10/25 18:59:12;;;;;;;29.40;9.18;;;;;;;22.62;62.37;100708.09;21059714;27;20085;-73
2022/10/25 19:09:13;;;;;;;38.58;9.50;;;;;;;22.65;62.91;100695.50;21061685;27;20162;-72
2022/10/25 19:19:14;;;;;;;26.43;8.00;;;;;;;22.65;63.08;100713.16;21058213;27;20047;-73
2022/10/25 19:29:14;;;;;;;26.02;8.65;;;;;;;22.64;62.73;100712.31;21061687;27;20597;-74
2022/10/25 19:39:16;;;;;;;21.13;7.75;;;;;;;22.63;62.26;100715.06;21065037;27;20113;-72
2022/10/25 19:49:16;;;;;;;17.48;7.65;;;;;;;22.63;62.15;100731.75;21046807;27;20067;-73
2022/10/25 19:59:17;;;;;;;19.27;6.85;;;;;;;22.62;62.39;100737.13;21052085;27;20655;-72
2022/10/25 20:09:17;;;;;;;23.45;7.30;;;;;;;22.61;61.75;100741.56;21056407;27;20494;-71
2022/10/25 20:19:21;;;;;;;20.02;7.00;;;;;;;22.58;61.55;100728.59;21050923;27;20097;-72
2022/10/25 20:29:22;;;;;;;16.05;6.60;;;;;;;22.57;61.42;100741.94;21046319;28;20116;-72
2022/10/25 20:39:23;;;;;;;18.85;7.30;;;;;;;22.52;61.75;100742.28;21063386;28;20116;-72
2022/10/25 20:49:23;;;;;;;15.82;6.35;;;;;;;22.48;62.31;100760.16;21065852;27;20040;-72
2022/10/25 20:59:23;;;;;;;16.52;5.95;;;;;;;22.47;62.29;100765.56;21067977;27;20040;-72
2022/10/25 21:09:24;;;;;;;15.90;6.22;;;;;;;22.44;62.32;100766.63;21074908;27;20043;-72
2022/10/25 21:19:24;;;;;;;13.88;6.20;;;;;;;22.42;62.41;100765.06;21085723;27;20038;-72
2022/10/25 21:29:25;;;;;;;16.27;6.00;;;;;;;22.40;62.18;100765.19;21108956;27;20121;-72
2022/10/25 21:39:25;;;;;;;12.20;5.53;;;;;;;22.36;62.06;100768.97;21136684;27;20884;-73
2022/10/25 21:49:25;;;;;;;14.07;5.68;;;;;;;22.34;62.27;100776.19;21137150;27;20048;-72
2022/10/25 21:59:26;;;;;;;18.02;5.28;;;;;;;22.31;62.01;100776.41;21088580;27;20600;-72
2022/10/25 22:09:26;;;;;;;11.20;5.72;;;;;;;22.29;61.85;100773.91;21068185;27;20048;-72
2022/10/25 22:19:27;;;;;;;11.98;5.32;;;;;;;22.27;61.91;100775.81;21075672;27;20032;-73
2022/10/25 22:29:27;;;;;;;15.20;5.60;;;;;;;22.24;62.01;100776.06;21070921;27;20048;-73
2022/10/25 22:39:27;;;;;;;12.27;5.38;;;;;;;22.23;61.85;100777.00;21073828;27;20042;-73
2022/10/25 22:49:28;;;;;;;10.18;4.63;;;;;;;22.21;61.83;100784.19;21069320;27;20040;-73
2022/10/25 22:59:28;;;;;;;10.45;4.95;;;;;;;22.19;61.57;100770.25;21067797;27;20189;-73
2022/10/25 23:09:28;;;;;;;10.95;4.65;;;;;;;22.15;61.68;100777.56;21072516;27;20059;-73
2022/10/25 23:19:29;;;;;;;10.57;4.70;;;;;;;22.09;61.50;100777.19;21073301;27;20401;-73
2022/10/25 23:29:29;;;;;;;9.98;4.97;;;;;;;22.09;61.42;100779.84;21065633;27;20059;-73
2022/10/25 23:39:30;;;;;;;8.75;4.35;;;;;;;22.09;61.12;100780.66;21058552;27;20045;-74
2022/10/25 23:49:30;;;;;;;7.00;4.20;;;;;;;22.01;61.22;100765.44;21061158;27;20161;-74
2022/10/25 23:59:30;;;;;;;9.52;4.32;;;;;;;22.00;61.52;100769.03;21049188;27;20036;-73
